createdAt,value
2018-03-15T00:01:17.966Z,98348
2018-03-15T00:03:28.436Z,98352
2018-03-15T00:05:34.311Z,98342
2018-03-15T00:07:40.929Z,98348
2018-03-15T00:09:47.051Z,98346
2018-03-15T00:11:53.307Z,98351
2018-03-15T00:13:59.821Z,98341
2018-03-15T00:16:05.520Z,98347
2018-03-15T00:18:10.891Z,98345
2018-03-15T00:20:16.810Z,98346
2018-03-15T00:22:23.258Z,98337
2018-03-15T00:24:28.724Z,98340
2018-03-15T00:26:35.033Z,98343
2018-03-15T00:28:40.677Z,98336
2018-03-15T00:30:46.670Z,98336
2018-03-15T00:32:52.398Z,98339
2018-03-15T00:34:58.854Z,98327
2018-03-15T00:37:05.079Z,98330
2018-03-15T00:39:10.998Z,98330
2018-03-15T00:41:16.610Z,98330
2018-03-15T00:43:21.915Z,98327
2018-03-15T00:45:27.253Z,98330
2018-03-15T00:47:33.562Z,98318
2018-03-15T00:49:43.252Z,98320
2018-03-15T00:51:49.160Z,98314
2018-03-15T00:53:55.299Z,98312
2018-03-15T00:56:00.744Z,98313
2018-03-15T00:58:06.679Z,98304
2018-03-15T01:00:13.022Z,98306
2018-03-15T01:02:18.882Z,98301
2018-03-15T01:04:24.233Z,98301
2018-03-15T01:06:30.892Z,98302
2018-03-15T01:08:36.578Z,98300
2018-03-15T01:10:42.363Z,98295
2018-03-15T01:12:48.578Z,98289
2018-03-15T01:14:54.461Z,98285
2018-03-15T01:17:06.122Z,98273
2018-03-15T01:19:12.572Z,98271
2018-03-15T01:21:19.374Z,98268
2018-03-15T01:23:24.672Z,98268
2018-03-15T01:25:30.856Z,98259
2018-03-15T01:27:36.835Z,98257
2018-03-15T01:29:43.007Z,98249
2018-03-15T01:31:49.220Z,98254
2018-03-15T01:33:55.113Z,98245
2018-03-15T01:36:01.232Z,98247
2018-03-15T01:38:07.245Z,98243
2018-03-15T01:40:13.007Z,98243
2018-03-15T01:42:18.944Z,98242
2018-03-15T01:44:25.361Z,98238
2018-03-15T01:46:31.374Z,98236
2018-03-15T01:48:37.119Z,98237
2018-03-15T01:50:43.151Z,98222
2018-03-15T01:52:49.064Z,98221
2018-03-15T01:54:55.248Z,98223
2018-03-15T01:57:01.612Z,98218
2018-03-15T01:59:07.720Z,98219
2018-03-15T02:01:13.828Z,98214
2018-03-15T02:03:20.283Z,98210
2018-03-15T02:05:26.403Z,98205
2018-03-15T02:07:32.384Z,98197
2018-03-15T02:09:38.926Z,98198
2018-03-15T02:11:44.727Z,98191
2018-03-15T02:13:50.664Z,98191
2018-03-15T02:15:56.668Z,98186
2018-03-15T02:18:02.523Z,98183
2018-03-15T02:20:08.419Z,98184
2018-03-15T02:22:14.632Z,98177
2018-03-15T02:24:20.394Z,98173
2018-03-15T02:26:26.327Z,98176
2018-03-15T02:28:32.749Z,98177
2018-03-15T02:30:38.594Z,98175
2018-03-15T02:32:44.612Z,98170
2018-03-15T02:34:50.706Z,98171
2018-03-15T02:36:56.600Z,98168
2018-03-15T02:39:02.613Z,98168
2018-03-15T02:41:08.899Z,98171
2018-03-15T02:43:19.399Z,98169
2018-03-15T02:45:25.221Z,98169
2018-03-15T02:47:31.302Z,98168
2018-03-15T02:49:37.067Z,98167
2018-03-15T02:51:43.107Z,98169
2018-03-15T02:53:49.469Z,98167
2018-03-15T02:55:55.418Z,98163
2018-03-15T02:58:01.307Z,98162
2018-03-15T03:00:08.209Z,98159
2018-03-15T03:02:13.890Z,98160
2018-03-15T03:04:19.399Z,98163
2018-03-15T03:06:25.594Z,98159
2018-03-15T03:08:31.766Z,98153
2018-03-15T03:10:37.642Z,98157
2018-03-15T03:12:44.040Z,98159
2018-03-15T03:14:50.163Z,98158
2018-03-15T03:16:55.875Z,98157
2018-03-15T03:19:02.317Z,98156
2018-03-15T03:21:08.557Z,98158
2018-03-15T03:23:14.510Z,98156
2018-03-15T03:25:25.212Z,98156
2018-03-15T03:27:30.975Z,98154
2018-03-15T03:29:36.962Z,98155
2018-03-15T03:31:43.049Z,98158
2018-03-15T03:33:48.908Z,98154
2018-03-15T03:35:54.708Z,98157
2018-03-15T03:38:01.017Z,98155
2018-03-15T03:40:07.459Z,98159
2018-03-15T03:42:13.187Z,98163
2018-03-15T03:44:19.290Z,98159
2018-03-15T03:46:25.154Z,98155
2018-03-15T03:48:31.157Z,98160
2018-03-15T03:50:37.312Z,98158
2018-03-15T03:52:43.156Z,98159
2018-03-15T03:54:49.394Z,98161
2018-03-15T03:56:55.558Z,98158
2018-03-15T03:59:00.935Z,98155
2018-03-15T04:01:07.292Z,98163
2018-03-15T04:03:13.592Z,98166
2018-03-15T04:05:19.325Z,98164
2018-03-15T04:07:25.252Z,98167
2018-03-15T04:09:32.225Z,98162
2018-03-15T04:11:38.696Z,98170
2018-03-15T04:13:44.849Z,98170
2018-03-15T04:15:51.217Z,98170
2018-03-15T04:17:57.067Z,98170
2018-03-15T04:20:03.135Z,98172
2018-03-15T04:22:09.903Z,98173
2018-03-15T04:24:15.779Z,98169
2018-03-15T04:26:21.805Z,98177
2018-03-15T04:28:27.964Z,98179
2018-03-15T04:30:33.820Z,98181
2018-03-15T04:32:39.925Z,98186
2018-03-15T04:34:45.887Z,98189
2018-03-15T04:36:51.648Z,98183
2018-03-15T04:38:57.494Z,98184
2018-03-15T04:41:03.745Z,98193
2018-03-15T04:43:09.547Z,98185
2018-03-15T04:45:15.224Z,98183
2018-03-15T04:47:21.348Z,98178
2018-03-15T04:49:27.094Z,98176
2018-03-15T04:51:33.760Z,98177
2018-03-15T04:53:39.816Z,98176
2018-03-15T04:55:46.527Z,98186
2018-03-15T04:57:52.351Z,98187
2018-03-15T04:59:58.506Z,98188
2018-03-15T05:02:04.588Z,98189
2018-03-15T05:04:10.542Z,98185
2018-03-15T05:06:16.120Z,98189
2018-03-15T05:08:22.380Z,98196
2018-03-15T05:10:28.876Z,98192
2018-03-15T05:12:34.628Z,98189
2018-03-15T05:14:40.476Z,98194
2018-03-15T05:16:46.094Z,98190
2018-03-15T05:18:52.296Z,98190
2018-03-15T05:20:58.113Z,98187
2018-03-15T05:23:04.158Z,98177
2018-03-15T05:25:10.684Z,98175
2018-03-15T05:27:17.003Z,98173
2018-03-15T05:29:22.761Z,98172
2018-03-15T05:31:29.163Z,98171
2018-03-15T05:33:35.196Z,98167
2018-03-15T05:35:40.976Z,98163
2018-03-15T05:37:47.283Z,98161
2018-03-15T05:39:53.259Z,98164
2018-03-15T05:41:58.596Z,98160
2018-03-15T05:44:06.038Z,98163
2018-03-15T05:46:12.016Z,98159
2018-03-15T05:50:28.898Z,98157
2018-03-15T05:52:34.834Z,98152
2018-03-15T05:54:40.798Z,98150
2018-03-15T05:56:46.431Z,98140
2018-03-15T05:58:52.654Z,98135
2018-03-15T06:00:58.606Z,98135
2018-03-15T06:03:04.430Z,98135
2018-03-15T06:05:10.240Z,98121
2018-03-15T06:07:15.610Z,98124
2018-03-15T06:09:21.176Z,98116
2018-03-15T06:11:26.532Z,98113
2018-03-15T06:13:32.196Z,98113
2018-03-15T06:15:38.363Z,98110
2018-03-15T06:17:44.202Z,98106
2018-03-15T06:19:50.156Z,98107
2018-03-15T06:21:56.506Z,98107
2018-03-15T06:24:01.805Z,98110
2018-03-15T06:26:07.725Z,98097
2018-03-15T06:28:13.872Z,98099
2018-03-15T06:30:19.732Z,98096
2018-03-15T06:32:25.231Z,98101
2018-03-15T06:34:30.879Z,98095
2018-03-15T06:36:36.332Z,98091
2018-03-15T06:38:41.628Z,98093
2018-03-15T06:40:48.346Z,98089
2018-03-15T06:42:53.851Z,98085
2018-03-15T06:45:00.170Z,98094
2018-03-15T06:47:05.820Z,98086
2018-03-15T06:49:11.108Z,98085
2018-03-15T06:51:16.644Z,98085
2018-03-15T06:53:23.404Z,98080
2018-03-15T06:55:28.727Z,98079
2018-03-15T06:57:34.631Z,98077
2018-03-15T06:59:44.250Z,98088
2018-03-15T07:01:51.473Z,98088
2018-03-15T07:03:56.848Z,98082
2018-03-15T07:06:02.549Z,98077
2018-03-15T07:08:09.941Z,98082
2018-03-15T07:10:15.241Z,98071
2018-03-15T07:12:20.732Z,98078
2018-03-15T07:14:26.185Z,98068
2018-03-15T07:16:31.488Z,98065
2018-03-15T07:18:38.092Z,98062
2018-03-15T07:20:43.517Z,98061
2018-03-15T07:22:52.836Z,98055
2018-03-15T07:24:58.383Z,98053
2018-03-15T07:27:03.835Z,98052
2018-03-15T07:29:09.182Z,98044
2018-03-15T07:31:14.827Z,98049
2018-03-15T07:33:20.140Z,98045
2018-03-15T07:35:25.424Z,98042
2018-03-15T07:37:30.999Z,98053
2018-03-15T07:39:36.705Z,98048
2018-03-15T07:41:42.001Z,98053
2018-03-15T07:43:48.069Z,98050
2018-03-15T07:45:53.484Z,98046
2018-03-15T07:47:58.933Z,98050
2018-03-15T07:50:04.621Z,98051
2018-03-15T07:52:11.143Z,98056
2018-03-15T07:54:16.439Z,98058
2018-03-15T07:56:21.992Z,98062
2018-03-15T07:58:27.312Z,98059
2018-03-15T08:00:32.605Z,98056
2018-03-15T08:02:37.936Z,98042
2018-03-15T08:04:43.537Z,98049
2018-03-15T08:06:48.884Z,98053
2018-03-15T08:08:54.209Z,98042
2018-03-15T08:11:00.110Z,98040
2018-03-15T08:13:05.400Z,98037
2018-03-15T08:15:11.579Z,98037
2018-03-15T08:17:17.232Z,98031
2018-03-15T08:19:22.915Z,98031
2018-03-15T08:21:28.445Z,98026
2018-03-15T08:23:34.182Z,98030
2018-03-15T08:25:39.613Z,98026
2018-03-15T08:27:45.089Z,98029
2018-03-15T08:29:50.733Z,98024
2018-03-15T08:31:56.972Z,98022
2018-03-15T08:34:03.270Z,98017
2018-03-15T08:36:09.456Z,98018
2018-03-15T08:38:14.798Z,98014
2018-03-15T08:40:20.256Z,98018
2018-03-15T08:42:25.827Z,98017
2018-03-15T08:44:31.868Z,98015
2018-03-15T08:46:37.160Z,98020
2018-03-15T08:48:42.719Z,98018
2018-03-15T08:50:48.032Z,98012
2018-03-15T08:52:53.393Z,98012
2018-03-15T08:54:59.058Z,98009
2018-03-15T08:57:04.448Z,98012
2018-03-15T08:59:09.861Z,98011
2018-03-15T09:01:16.063Z,98012
2018-03-15T09:03:22.012Z,98006
2018-03-15T09:05:27.457Z,97996
2018-03-15T09:07:33.009Z,97997
2018-03-15T09:09:39.068Z,97991
2018-03-15T09:11:44.801Z,97992
2018-03-15T09:13:50.367Z,97991
2018-03-15T09:15:55.638Z,97991
2018-03-15T09:18:01.034Z,97993
2018-03-15T09:20:06.915Z,97978
2018-03-15T09:22:12.312Z,97986
2018-03-15T09:24:17.554Z,97986
2018-03-15T09:26:24.789Z,97980
2018-03-15T09:28:30.055Z,97975
2018-03-15T09:30:36.139Z,97970
2018-03-15T09:32:42.936Z,97971
2018-03-15T09:34:48.621Z,97969
2018-03-15T09:36:54.610Z,97964
2018-03-15T09:39:00.932Z,97963
2018-03-15T09:41:07.026Z,97959
2018-03-15T09:43:12.957Z,97954
2018-03-15T09:45:18.956Z,97946
2018-03-15T09:47:24.327Z,97941
2018-03-15T09:49:32.099Z,97940
2018-03-15T09:51:37.931Z,97945
2018-03-15T09:53:43.783Z,97937
2018-03-15T09:55:49.621Z,97929
2018-03-15T09:57:55.395Z,97931
2018-03-15T10:00:00.815Z,97922
2018-03-15T10:02:06.909Z,97929
2018-03-15T10:04:12.584Z,97918
2018-03-15T10:06:17.932Z,97910
2018-03-15T10:08:23.237Z,97903
2018-03-15T10:10:33.552Z,97900
2018-03-15T10:12:38.954Z,97904
2018-03-15T10:14:44.395Z,97899
2018-03-15T10:16:50.186Z,97894
2018-03-15T10:18:55.494Z,97896
2018-03-15T10:21:00.968Z,97891
2018-03-15T10:23:07.193Z,97890
2018-03-15T10:25:13.883Z,97890
2018-03-15T10:27:19.484Z,97889
2018-03-15T10:29:25.967Z,97884
2018-03-15T10:31:36.035Z,97879
2018-03-15T10:33:41.363Z,97876
2018-03-15T10:35:48.911Z,97878
2018-03-15T10:37:55.200Z,97877
2018-03-15T10:40:00.576Z,97885
2018-03-15T10:42:09.112Z,97884
2018-03-15T10:44:14.556Z,97886
2018-03-15T10:46:20.409Z,97880
2018-03-15T10:48:26.120Z,97873
2018-03-15T10:50:31.481Z,97865
2018-03-15T10:52:37.395Z,97856
2018-03-15T10:54:42.984Z,97856
2018-03-15T10:56:49.035Z,97850
2018-03-15T10:58:55.004Z,97852
2018-03-15T11:01:04.689Z,97855
2018-03-15T11:03:14.441Z,97848
2018-03-15T11:05:23.696Z,97848
2018-03-15T11:07:31.061Z,97840
2018-03-15T11:09:37.020Z,97835
2018-03-15T11:11:42.430Z,97828
2018-03-15T11:13:48.075Z,97829
2018-03-15T11:15:53.520Z,97820
2018-03-15T11:17:58.828Z,97813
2018-03-15T11:20:04.486Z,97813
2018-03-15T11:22:09.795Z,97810
2018-03-15T11:24:15.780Z,97804
2018-03-15T11:26:22.088Z,97810
2018-03-15T11:28:27.722Z,97811
2018-03-15T11:30:33.602Z,97803
2018-03-15T11:32:39.177Z,97806
2018-03-15T11:34:44.404Z,97794
2018-03-15T11:36:49.687Z,97794
2018-03-15T11:38:56.078Z,97787
2018-03-15T11:41:01.376Z,97788
2018-03-15T11:43:06.635Z,97785
2018-03-15T11:45:12.252Z,97781
2018-03-15T11:47:18.109Z,97785
2018-03-15T11:49:23.526Z,97779
2018-03-15T11:51:29.857Z,97771
2018-03-15T11:53:35.847Z,97767
2018-03-15T11:55:41.772Z,97765
2018-03-15T11:57:47.503Z,97762
2018-03-15T11:59:59.721Z,97757
2018-03-15T12:02:05.108Z,97757
2018-03-15T12:04:10.819Z,97751
2018-03-15T12:06:16.126Z,97748
2018-03-15T12:08:21.440Z,97742
2018-03-15T12:10:27.098Z,97738
2018-03-15T12:12:35.380Z,97737
2018-03-15T12:14:40.841Z,97729
2018-03-15T12:16:46.493Z,97723
2018-03-15T12:18:51.735Z,97723
2018-03-15T12:20:57.053Z,97722
2018-03-15T12:23:05.690Z,97717
2018-03-15T12:25:12.051Z,97704
2018-03-15T12:27:24.895Z,97695
2018-03-15T12:29:32.056Z,97694
2018-03-15T12:31:37.524Z,97694
2018-03-15T12:33:42.923Z,97692
2018-03-15T12:35:48.744Z,97682
2018-03-15T12:37:54.284Z,97676
2018-03-15T12:39:59.568Z,97682
2018-03-15T12:42:05.574Z,97671
2018-03-15T12:44:12.156Z,97668
2018-03-15T12:46:17.490Z,97672
2018-03-15T12:48:23.070Z,97673
2018-03-15T12:50:28.374Z,97671
2018-03-15T12:52:36.339Z,97669
2018-03-15T12:54:44.404Z,97669
2018-03-15T12:56:49.725Z,97666
2018-03-15T12:58:55.105Z,97653
2018-03-15T13:01:00.646Z,97651
2018-03-15T13:03:07.537Z,97649
2018-03-15T13:05:12.816Z,97647
2018-03-15T13:07:18.353Z,97647
2018-03-15T13:09:23.628Z,97646
2018-03-15T13:11:31.120Z,97640
2018-03-15T13:13:37.528Z,97633
2018-03-15T13:15:42.972Z,97624
2018-03-15T13:17:48.961Z,97614
2018-03-15T13:19:57.499Z,97603
2018-03-15T13:22:04.144Z,97592
2018-03-15T13:24:11.002Z,97591
2018-03-15T13:26:17.349Z,97590
2018-03-15T13:28:23.306Z,97586
2018-03-15T13:30:28.997Z,97584
2018-03-15T13:32:34.786Z,97583
2018-03-15T13:34:40.340Z,97574
2018-03-15T13:36:46.020Z,97566
2018-03-15T13:38:52.031Z,97567
2018-03-15T13:40:57.777Z,97564
2018-03-15T13:43:03.148Z,97562
2018-03-15T13:45:08.839Z,97562
2018-03-15T13:47:14.867Z,97561
2018-03-15T13:49:22.161Z,97560
2018-03-15T13:51:27.846Z,97562
2018-03-15T13:53:33.119Z,97566
2018-03-15T13:55:39.207Z,97560
2018-03-15T13:57:44.772Z,97557
2018-03-15T13:59:50.257Z,97556
2018-03-15T14:01:56.115Z,97562
2018-03-15T14:04:01.753Z,97550
2018-03-15T14:06:07.276Z,97553
2018-03-15T14:08:13.558Z,97550
2018-03-15T14:10:19.188Z,97554
2018-03-15T14:12:24.596Z,97549
2018-03-15T14:14:29.960Z,97552
2018-03-15T14:16:35.608Z,97550
2018-03-15T14:18:42.369Z,97542
2018-03-15T14:20:47.816Z,97536
2018-03-15T14:22:53.592Z,97529
2018-03-15T14:24:59.049Z,97518
2018-03-15T14:27:05.720Z,97517
2018-03-15T14:29:12.229Z,97520
2018-03-15T14:31:18.300Z,97517
2018-03-15T14:33:24.788Z,97517
2018-03-15T14:35:31.416Z,97520
2018-03-15T14:37:37.583Z,97518
2018-03-15T14:39:43.750Z,97513
2018-03-15T14:41:50.288Z,97511
2018-03-15T14:43:55.825Z,97506
2018-03-15T14:46:01.210Z,97511
2018-03-15T14:48:06.832Z,97515
2018-03-15T14:50:12.231Z,97513
2018-03-15T14:52:17.595Z,97513
2018-03-15T14:54:23.850Z,97513
2018-03-15T14:56:32.472Z,97519
2018-03-15T14:58:42.979Z,97522
2018-03-15T15:00:48.769Z,97520
2018-03-15T15:02:54.158Z,97529
2018-03-15T15:05:00.496Z,97531
2018-03-15T15:07:07.252Z,97534
2018-03-15T15:09:13.348Z,97536
2018-03-15T15:11:21.896Z,97535
2018-03-15T15:13:27.700Z,97528
2018-03-15T15:15:33.384Z,97521
2018-03-15T15:17:39.554Z,97518
2018-03-15T15:19:46.986Z,97533
2018-03-15T15:21:53.003Z,97534
2018-03-15T15:24:00.595Z,97526
2018-03-15T15:26:14.668Z,97536
2018-03-15T15:28:21.987Z,97540
2018-03-15T15:30:28.161Z,97543
2018-03-15T15:32:37.364Z,97541
2018-03-15T15:34:43.596Z,97539
2018-03-15T15:36:50.934Z,97533
2018-03-15T15:38:56.657Z,97536
2018-03-15T15:41:01.883Z,97535
2018-03-15T15:43:08.566Z,97534
2018-03-15T15:45:14.798Z,97543
2018-03-15T15:47:20.271Z,97545
2018-03-15T15:49:25.548Z,97547
2018-03-15T15:51:31.731Z,97537
2018-03-15T15:53:37.212Z,97539
2018-03-15T15:55:42.552Z,97546
2018-03-15T15:57:48.240Z,97541
2018-03-15T15:59:53.709Z,97536
2018-03-15T16:01:59.535Z,97544
2018-03-15T16:04:06.811Z,97545
2018-03-15T16:06:12.093Z,97552
2018-03-15T16:08:17.563Z,97555
2018-03-15T16:10:27.744Z,97549
2018-03-15T16:12:33.853Z,97548
2018-03-15T16:14:39.814Z,97547
2018-03-15T16:16:46.084Z,97548
2018-03-15T16:18:52.201Z,97552
2018-03-15T16:20:58.286Z,97557
2018-03-15T16:23:04.145Z,97554
2018-03-15T16:25:09.818Z,97550
2018-03-15T16:27:15.535Z,97554
2018-03-15T16:29:21.663Z,97549
2018-03-15T16:31:27.782Z,97555
2018-03-15T16:33:34.672Z,97551
2018-03-15T16:35:40.516Z,97552
2018-03-15T16:37:46.349Z,97555
2018-03-15T16:39:51.839Z,97549
2018-03-15T16:41:57.835Z,97550
2018-03-15T16:44:03.481Z,97548
2018-03-15T16:46:09.865Z,97544
2018-03-15T16:48:15.662Z,97543
2018-03-15T16:50:21.136Z,97540
2018-03-15T16:52:26.939Z,97543
2018-03-15T16:54:32.609Z,97547
2018-03-15T16:56:37.955Z,97543
2018-03-15T16:58:45.698Z,97537
2018-03-15T17:00:51.649Z,97540
2018-03-15T17:02:57.154Z,97538
2018-03-15T17:05:03.019Z,97538
2018-03-15T17:07:08.819Z,97543
2018-03-15T17:09:14.236Z,97541
2018-03-15T17:11:19.876Z,97545
2018-03-15T17:13:25.644Z,97535
2018-03-15T17:15:30.999Z,97535
2018-03-15T17:17:36.995Z,97538
2018-03-15T17:19:42.751Z,97537
2018-03-15T17:21:48.221Z,97536
2018-03-15T17:23:53.849Z,97543
2018-03-15T17:26:00.224Z,97544
2018-03-15T17:28:05.640Z,97542
2018-03-15T17:30:11.667Z,97546
2018-03-15T17:32:17.321Z,97548
2018-03-15T17:34:22.741Z,97553
2018-03-15T17:36:28.352Z,97545
2018-03-15T17:38:34.257Z,97547
2018-03-15T17:40:39.741Z,97548
2018-03-15T17:42:45.126Z,97552
2018-03-15T17:44:51.128Z,97550
2018-03-15T17:46:56.600Z,97554
2018-03-15T17:49:02.234Z,97552
2018-03-15T17:51:08.126Z,97554
2018-03-15T17:53:14.001Z,97555
2018-03-15T17:55:19.969Z,97552
2018-03-15T17:57:25.860Z,97555
2018-03-15T17:59:31.948Z,97554
2018-03-15T18:01:37.320Z,97551
2018-03-15T18:03:46.615Z,97555
2018-03-15T18:05:51.959Z,97555
2018-03-15T18:07:57.324Z,97553
2018-03-15T18:10:03.368Z,97557
2018-03-15T18:12:08.772Z,97555
2018-03-15T18:14:14.248Z,97558
2018-03-15T18:16:20.240Z,97553
2018-03-15T18:18:25.560Z,97551
2018-03-15T18:20:30.866Z,97552
2018-03-15T18:22:36.734Z,97550
2018-03-15T18:24:42.020Z,97548
2018-03-15T18:26:47.660Z,97548
2018-03-15T18:28:53.347Z,97550
2018-03-15T18:30:58.736Z,97549
2018-03-15T18:33:04.172Z,97550
2018-03-15T18:35:11.548Z,97549
2018-03-15T18:37:16.953Z,97547
2018-03-15T18:39:22.434Z,97548
2018-03-15T18:41:28.105Z,97546
2018-03-15T18:43:33.519Z,97547
2018-03-15T18:45:38.856Z,97541
2018-03-15T18:47:44.464Z,97536
2018-03-15T18:49:49.877Z,97537
2018-03-15T18:51:55.768Z,97535
2018-03-15T18:54:01.767Z,97533
2018-03-15T18:56:07.157Z,97540
2018-03-15T18:58:12.738Z,97542
2018-03-15T19:00:18.408Z,97551
2018-03-15T19:02:23.707Z,97551
2018-03-15T19:04:29.319Z,97556
2018-03-15T19:06:35.003Z,97559
2018-03-15T19:08:40.316Z,97557
2018-03-15T19:10:45.761Z,97559
2018-03-15T19:12:54.448Z,97554
2018-03-15T19:14:59.769Z,97559
2018-03-15T19:17:05.197Z,97562
2018-03-15T19:19:10.837Z,97555
2018-03-15T19:21:16.230Z,97558
2018-03-15T19:23:21.598Z,97559
2018-03-15T19:25:27.429Z,97560
2018-03-15T19:27:32.683Z,97560
2018-03-15T19:29:38.225Z,97563
2018-03-15T19:31:43.912Z,97560
2018-03-15T19:33:49.333Z,97571
2018-03-15T19:35:54.850Z,97568
2018-03-15T19:38:01.960Z,97571
2018-03-15T19:40:07.449Z,97575
2018-03-15T19:42:12.784Z,97574
2018-03-15T19:44:18.372Z,97589
2018-03-15T19:46:23.708Z,97587
2018-03-15T19:48:30.305Z,97584
2018-03-15T19:50:35.928Z,97589
2018-03-15T19:52:41.460Z,97581
2018-03-15T19:54:46.822Z,97580
2018-03-15T19:56:52.523Z,97582
2018-03-15T19:58:57.871Z,97588
2018-03-15T20:01:03.873Z,97585
2018-03-15T20:03:09.624Z,97580
2018-03-15T20:05:14.904Z,97587
2018-03-15T20:07:20.338Z,97583
2018-03-15T20:09:26.048Z,97582
2018-03-15T20:11:31.328Z,97580
2018-03-15T20:13:36.728Z,97581
2018-03-15T20:15:46.354Z,97570
2018-03-15T20:17:52.104Z,97570
2018-03-15T20:19:57.448Z,97570
2018-03-15T20:22:03.102Z,97565
2018-03-15T20:24:13.512Z,97568
2018-03-15T20:26:18.868Z,97567
2018-03-15T20:28:54.545Z,97566
2018-03-15T20:30:59.988Z,97572
2018-03-15T20:34:10.552Z,97572
2018-03-15T20:36:16.240Z,97570
2018-03-15T20:38:21.620Z,97569
2018-03-15T20:40:31.664Z,97567
2018-03-15T20:42:37.333Z,97566
2018-03-15T20:44:43.472Z,97567
2018-03-15T20:48:54.980Z,97570
2018-03-15T20:51:00.538Z,97570
2018-03-15T20:53:10.495Z,97571
2018-03-15T20:55:18.891Z,97575
2018-03-15T20:57:27.631Z,97581
2018-03-15T20:59:32.912Z,97587
2018-03-15T21:01:38.535Z,97591
2018-03-15T21:03:43.914Z,97588
2018-03-15T21:05:49.775Z,97596
2018-03-15T21:07:55.387Z,97594
2018-03-15T21:10:00.752Z,97609
2018-03-15T21:12:06.126Z,97599
2018-03-15T21:14:13.835Z,97609
2018-03-15T21:16:19.781Z,97604
2018-03-15T21:18:26.140Z,97600
2018-03-15T21:20:31.831Z,97605
2018-03-15T21:22:37.701Z,97599
2018-03-15T21:24:43.053Z,97599
2018-03-15T21:26:48.627Z,97603
2018-03-15T21:28:54.436Z,97601
2018-03-15T21:30:59.858Z,97597
2018-03-15T21:33:05.952Z,97597
2018-03-15T21:35:11.634Z,97607
2018-03-15T21:37:17.769Z,97610
2018-03-15T21:39:23.609Z,97602
2018-03-15T21:41:29.165Z,97600
2018-03-15T21:43:34.504Z,97602
2018-03-15T21:45:40.184Z,97600
2018-03-15T21:47:45.531Z,97596
2018-03-15T21:49:50.860Z,97592
2018-03-15T21:51:56.920Z,97590
2018-03-15T21:54:02.294Z,97591
2018-03-15T21:56:08.006Z,97588
2018-03-15T21:58:13.822Z,97587
2018-03-15T22:00:19.453Z,97582
2018-03-15T22:02:25.048Z,97591
2018-03-15T22:04:30.827Z,97591
2018-03-15T22:06:38.328Z,97600
2018-03-15T22:08:43.741Z,97603
2018-03-15T22:10:49.508Z,97607
2018-03-15T22:12:54.888Z,97607
2018-03-15T22:15:00.593Z,97607
2018-03-15T22:17:06.742Z,97606
2018-03-15T22:19:12.162Z,97612
2018-03-15T22:21:18.142Z,97614
2018-03-15T22:23:24.107Z,97619
2018-03-15T22:25:31.265Z,97622
2018-03-15T22:27:36.507Z,97627
2018-03-15T22:29:43.078Z,97619
2018-03-15T22:31:48.570Z,97620
2018-03-15T22:33:53.967Z,97607
2018-03-15T22:36:00.446Z,97611
2018-03-15T22:38:05.761Z,97615
2018-03-15T22:40:12.727Z,97613
2018-03-15T22:42:18.427Z,97611
2018-03-15T22:44:23.775Z,97601
2018-03-15T22:46:29.684Z,97595
2018-03-15T22:48:35.277Z,97593
2018-03-15T22:50:40.966Z,97605
2018-03-15T22:52:46.436Z,97610
2018-03-15T22:54:52.652Z,97608
2018-03-15T22:56:58.481Z,97608
2018-03-15T22:59:05.203Z,97600
2018-03-15T23:01:10.825Z,97598
2018-03-15T23:03:16.652Z,97600
2018-03-15T23:05:21.947Z,97603
2018-03-15T23:07:28.622Z,97597
2018-03-15T23:09:34.090Z,97595
2018-03-15T23:11:39.380Z,97592
2018-03-15T23:13:45.834Z,97588
2018-03-15T23:15:52.123Z,97593
2018-03-15T23:17:57.449Z,97589
2018-03-15T23:20:03.255Z,97597
2018-03-15T23:22:09.456Z,97598
2018-03-15T23:24:14.899Z,97601
2018-03-15T23:26:20.477Z,97604
2018-03-15T23:28:25.792Z,97604
2018-03-15T23:30:32.699Z,97594
2018-03-15T23:32:43.309Z,97606
2018-03-15T23:34:48.627Z,97608
2018-03-15T23:36:55.066Z,97611
2018-03-15T23:39:01.376Z,97611
2018-03-15T23:41:06.750Z,97607
2018-03-15T23:43:12.013Z,97609
2018-03-15T23:45:17.702Z,97612
2018-03-15T23:47:23.179Z,97615
2018-03-15T23:49:28.831Z,97606
2018-03-15T23:51:35.051Z,97616
2018-03-15T23:53:40.376Z,97610
2018-03-15T23:55:45.689Z,97613
2018-03-15T23:57:52.036Z,97612
2018-03-15T23:59:58.077Z,97609
